Main page
METAR-TAF:

METAR-TAF

Airports :

Cherif Al Idrissi Airport

Al Hoceima, Morocco

latitude: 35-11N, longitude: 003-51W, elevation: 27 m

Current weather observation

The report was made 1 hour and 6 minutes ago, at 08:00 UTC
Wind 8 kt from the Northwest
Temperature 24°C
Humidity 65%
Pressure 1016 hPa
Visibility 10 km or more
no clouds below 1500 m and no cumulonimbus

METAR: GMTA 150800Z 32008KT CAVOK 24/17 Q1016 NOSIG

Time: 10:06 (09:06 UTC)

Forecast

The report was made 4 hours and 6 minutes ago, at 05:00 UTC
Forecast valid from 15 at 06 UTC to 16 at 12 UTC
Wind 2 kt from variable directions
Visibility 10 km or more
no clouds below 1500 m and no cumulonimbus
Becoming
from 15 at 06 UTC to 15 at 08 UTC
Wind 8 kt from the North
Scattered clouds at a height of 1000 ft
Becoming
from 15 at 18 UTC to 15 at 21 UTC
Broken clouds at a height of 1000 ft

TAF: GMTA 150500Z 1506/1612 VRB02KT CAVOK BECMG 1506/1508 35008KT SCT010 BECMG 1518/1521 BKN010

Weather observations and forecasts of more than 4000 airports (METAR and TAF reports).

The available stations are represented by yellow and red dots on the map.

Hover mouse over dot to see the name of the station.

Then click to see weather observations and forecasts.

To change the map : click on the green buttons with a black cross to zoom in, on the green button with a dash to zoom out, or on the green arrows for adjacent maps.


METAR-TAF: